Clawson, Utah
Current Conditions -  °F | °C
As of 1:53 PM on Wednesday 26 Nov 2014 (Local Time) from KPUC Reporting Station
Clear Clear  
Wind Chill: 52°   Ceiling: Unl
Heat Index: 52°   Visibility: 10mi
Dew Point: 27°   Wind: 7mph
Humidity: 38%   Direction: 230°SW
Pressure: 30.37"   Gusts: NA
Location:  39.13°N, 111.1°W
Report Text: KPUC 262053Z AUTO 23006KT 10SM CLR 11/M03 A3037 RMK AO2 SLP289 T01111028 58011
Loading
Personal Weather Stations






























Interactive Weather Map New forecast layout! Learn more

10-Day Weather Forecast

Advertisements
Track Severe Weather on mobile